Time;durP1;ratioP1;P1;durP2;ratioP2;P2;SDS_P1;SDS_P2;PMS_P1;PMS_P2;Temp;Humidity;BMP_temperature;BMP_pressure;BME280_temperature;BME280_humidity;BME280_pressure;Samples;Min_cycle;Max_cycle;Signal;HPM_P1;HPM_P2
2021/03/06 00:04:51;;;;;;;5.07;4.43;;;3.00;79.50;;;;;;10499058;28;20203;-79
2021/03/06 00:09:53;;;;;;;4.90;4.50;;;3.00;79.50;;;;;;10481619;28;20274;-78
2021/03/06 00:14:55;;;;;;;3.53;3.23;;;2.90;79.20;;;;;;10500348;28;20310;-80
2021/03/06 00:19:57;;;;;;;5.63;5.13;;;2.90;79.30;;;;;;10497845;28;20653;-78
2021/03/06 00:24:59;;;;;;;5.53;5.03;;;2.90;79.10;;;;;;10499014;28;20711;-78
2021/03/06 00:30:00;;;;;;;6.40;5.50;;;2.90;79.00;;;;;;10499246;28;20284;-76
2021/03/06 00:35:04;;;;;;;4.87;4.47;;;2.90;79.20;;;;;;10500077;28;20200;-77
2021/03/06 00:40:08;;;;;;;5.40;4.47;;;2.80;79.00;;;;;;10497816;28;20354;-78
2021/03/06 00:45:10;;;;;;;4.40;4.00;;;2.80;78.50;;;;;;10498171;28;20720;-79
2021/03/06 00:50:16;;;;;;;5.57;5.07;;;2.80;77.70;;;;;;10511600;28;20730;-79
2021/03/06 00:55:18;;;;;;;5.20;4.80;;;2.80;78.00;;;;;;10496795;28;20672;-79
2021/03/06 01:00:23;;;;;;;5.53;5.03;;;2.70;77.90;;;;;;10503658;28;20220;-79
2021/03/06 01:05:26;;;;;;;5.27;4.60;;;2.70;78.30;;;;;;10503417;28;20880;-77
2021/03/06 01:10:31;;;;;;;5.80;5.30;;;2.60;78.50;;;;;;10499005;28;20220;-79
2021/03/06 01:15:33;;;;;;;4.93;4.53;;;2.60;77.10;;;;;;10498592;28;20197;-77
2021/03/06 01:20:36;;;;;;;5.67;5.00;;;2.50;77.40;;;;;;10498154;28;20259;-79
2021/03/06 01:25:38;;;;;;;5.30;4.80;;;2.50;77.30;;;;;;10498346;28;20283;-78
2021/03/06 01:30:39;;;;;;;4.93;4.53;;;2.50;77.70;;;;;;10497096;28;20304;-78
2021/03/06 01:35:42;;;;;;;5.00;4.60;;;2.40;77.70;;;;;;10497809;28;20330;-77
2021/03/06 01:40:43;;;;;;;4.90;4.50;;;2.40;77.40;;;;;;10482223;28;20216;-76
2021/03/06 01:45:45;;;;;;;4.83;4.50;;;2.30;77.40;;;;;;10496660;28;20200;-79
2021/03/06 01:50:50;;;;;;;5.73;5.30;;;2.30;77.40;;;;;;10503176;28;20223;-77
2021/03/06 01:55:51;;;;;;;5.50;5.00;;;2.20;77.90;;;;;;10498788;28;20209;-77
2021/03/06 02:00:53;;;;;;;5.67;5.23;;;2.20;77.90;;;;;;10492024;28;20254;-78
2021/03/06 02:05:56;;;;;;;5.87;5.37;;;2.10;77.80;;;;;;10492470;28;20536;-78
2021/03/06 02:10:58;;;;;;;5.20;4.80;;;2.10;77.40;;;;;;10499914;28;20574;-79
2021/03/06 02:16:10;;;;;;;6.07;5.57;;;2.10;77.20;;;;;;10499687;28;20204;-79
2021/03/06 02:21:29;;;;;;;5.13;4.83;;;2.00;76.60;;;;;;10500694;28;20258;-79
2021/03/06 02:26:50;;;;;;;6.67;5.57;;;2.00;77.00;;;;;;10502020;28;20216;-80
2021/03/06 02:31:55;;;;;;;5.13;4.73;;;2.00;77.00;;;;;;10515347;28;20894;-80
2021/03/06 02:37:01;;;;;;;5.50;4.87;;;2.00;76.90;;;;;;10497807;28;20211;-80
2021/03/06 02:42:06;;;;;;;5.33;4.60;;;1.90;76.50;;;;;;10497955;28;20220;-79
2021/03/06 02:47:09;;;;;;;4.93;4.63;;;1.90;76.20;;;;;;10498947;28;20257;-79
2021/03/06 02:52:11;;;;;;;5.30;4.90;;;1.80;76.90;;;;;;10499926;28;20571;-80
2021/03/06 02:57:23;;;;;;;6.33;5.80;;;1.80;76.60;;;;;;10499050;28;20258;-80
2021/03/06 03:02:32;;;;;;;5.30;4.90;;;1.80;77.20;;;;;;10500099;28;20220;-78
2021/03/06 03:07:41;;;;;;;6.87;5.77;;;1.70;76.70;;;;;;10506976;28;20198;-79
2021/03/06 03:12:50;;;;;;;5.53;5.13;;;1.70;77.20;;;;;;10499341;28;20256;-79
2021/03/06 03:17:56;;;;;;;5.37;5.00;;;1.60;76.60;;;;;;10498931;28;20314;-79
2021/03/06 03:23:02;;;;;;;5.27;4.87;;;1.60;76.40;;;;;;10498347;28;20224;-79
2021/03/06 03:28:05;;;;;;;6.00;5.37;;;1.60;76.30;;;;;;10497186;28;20259;-79
2021/03/06 03:33:11;;;;;;;5.70;5.20;;;1.50;76.10;;;;;;10498732;28;20220;-79
2021/03/06 03:38:13;;;;;;;5.80;5.40;;;1.50;76.30;;;;;;10497840;28;20246;-78
2021/03/06 03:43:16;;;;;;;5.70;5.20;;;1.40;76.30;;;;;;10498118;28;20220;-79
2021/03/06 03:48:19;;;;;;;6.50;5.90;;;1.40;76.00;;;;;;10498690;28;20208;-80
2021/03/06 03:53:21;;;;;;;5.73;5.23;;;1.40;76.00;;;;;;10499409;28;20272;-77
2021/03/06 03:58:24;;;;;;;5.37;4.97;;;1.30;75.70;;;;;;10497478;28;20216;-77
2021/03/06 04:03:27;;;;;;;5.40;4.83;;;1.30;75.80;;;;;;10484543;28;20220;-81
2021/03/06 04:08:29;;;;;;;5.47;4.97;;;1.20;76.30;;;;;;10499847;28;20323;-80
2021/03/06 04:13:31;;;;;;;5.20;4.80;;;1.20;75.80;;;;;;10486805;28;20790;-79
2021/03/06 04:18:33;;;;;;;5.00;4.70;;;1.20;75.70;;;;;;10500106;28;20226;-79
2021/03/06 04:23:35;;;;;;;5.90;5.40;;;1.20;75.70;;;;;;10503603;28;20223;-80
2021/03/06 04:28:36;;;;;;;5.87;5.30;;;1.20;76.00;;;;;;10485512;28;20699;-79
2021/03/06 04:33:39;;;;;;;5.90;4.63;;;1.20;75.90;;;;;;10501835;28;20238;-78
2021/03/06 04:38:41;;;;;;;5.23;4.80;;;1.10;74.90;;;;;;10500990;28;20220;-79
2021/03/06 04:43:42;;;;;;;4.70;4.40;;;1.20;75.00;;;;;;10507566;28;20249;-80
2021/03/06 04:48:45;;;;;;;5.03;4.70;;;1.20;74.60;;;;;;10482294;28;20819;-79
2021/03/06 04:53:46;;;;;;;5.30;4.90;;;1.10;74.60;;;;;;10502958;28;20196;-78
2021/03/06 04:58:48;;;;;;;5.03;4.63;;;1.10;74.70;;;;;;10501638;28;20300;-80
2021/03/06 05:03:50;;;;;;;5.57;5.17;;;1.10;75.10;;;;;;10510018;28;20220;-79
2021/03/06 05:08:52;;;;;;;5.40;4.90;;;1.00;74.70;;;;;;10524235;28;20227;-80
2021/03/06 05:13:53;;;;;;;4.87;4.47;;;1.00;74.50;;;;;;10490428;28;20314;-80
2021/03/06 05:18:56;;;;;;;5.77;5.13;;;1.00;75.10;;;;;;10499505;28;20220;-80
2021/03/06 05:23:58;;;;;;;5.00;4.60;;;0.90;74.40;;;;;;10500959;28;20278;-79
2021/03/06 05:28:59;;;;;;;6.63;6.03;;;0.90;74.70;;;;;;10501847;28;20224;-78
2021/03/06 05:34:02;;;;;;;7.93;5.73;;;0.80;75.60;;;;;;10490717;28;20235;-80
2021/03/06 05:39:04;;;;;;;4.77;4.40;;;0.80;75.10;;;;;;10480429;28;20223;-79
2021/03/06 05:44:06;;;;;;;5.03;4.63;;;0.80;74.70;;;;;;10483000;28;20216;-80
2021/03/06 05:49:08;;;;;;;5.47;5.03;;;0.70;73.70;;;;;;10486652;28;20251;-80
2021/03/06 05:54:12;;;;;;;5.30;4.90;;;0.70;74.30;;;;;;10491272;28;20284;-78
2021/03/06 05:59:14;;;;;;;5.80;5.30;;;0.70;74.30;;;;;;10480909;28;20213;-77
2021/03/06 06:04:18;;;;;;;5.90;5.40;;;0.70;74.40;;;;;;10476349;28;20717;-78
2021/03/06 06:09:19;;;;;;;5.67;5.17;;;0.70;75.00;;;;;;10481768;28;20286;-78
2021/03/06 06:14:21;;;;;;;5.97;5.57;;;0.70;74.20;;;;;;10496483;28;20205;-78
2021/03/06 06:19:24;;;;;;;7.10;5.80;;;0.70;74.80;;;;;;10496763;28;20250;-77
2021/03/06 06:24:25;;;;;;;5.30;4.90;;;0.60;74.10;;;;;;10494407;28;20647;-77
2021/03/06 06:29:37;;;;;;;8.00;7.23;;;0.60;74.70;;;;;;10493962;28;20221;-76
2021/03/06 06:34:41;;;;;;;9.17;8.27;;;0.60;74.20;;;;;;10491424;28;20254;-77
2021/03/06 06:39:44;;;;;;;7.23;6.60;;;0.50;74.80;;;;;;10493794;28;20212;-77
2021/03/06 06:44:55;;;;;;;6.70;6.10;;;0.50;75.40;;;;;;10494318;28;20232;-78
2021/03/06 06:49:58;;;;;;;6.27;5.77;;;0.60;75.50;;;;;;10492896;28;20257;-78
2021/03/06 06:55:01;;;;;;;6.10;5.60;;;0.70;75.10;;;;;;10492914;28;20224;-77
2021/03/06 07:00:06;;;;;;;6.73;6.13;;;0.70;75.30;;;;;;10493769;28;20231;-77
2021/03/06 07:05:09;;;;;;;6.70;6.20;;;0.70;75.20;;;;;;10492653;28;20537;-77
2021/03/06 07:10:12;;;;;;;8.57;6.60;;;0.80;75.40;;;;;;10491724;28;20212;-77
2021/03/06 07:15:18;;;;;;;6.03;5.43;;;0.90;75.30;;;;;;10494280;28;20200;-78
2021/03/06 07:20:36;;;;;;;6.67;6.07;;;0.90;75.30;;;;;;10495882;28;20638;-78
2021/03/06 07:25:37;;;;;;;7.10;6.50;;;1.00;73.50;;;;;;10493538;28;20664;-78
2021/03/06 07:30:39;;;;;;;5.93;5.43;;;1.10;74.40;;;;;;10494956;28;20293;-78
2021/03/06 07:35:43;;;;;;;7.20;6.57;;;1.30;74.90;;;;;;10494076;28;20268;-77
2021/03/06 07:40:49;;;;;;;7.10;6.40;;;1.40;74.90;;;;;;10498574;28;20314;-77
2021/03/06 07:45:52;;;;;;;6.50;6.00;;;1.60;75.10;;;;;;10505983;28;20601;-77
2021/03/06 07:50:55;;;;;;;6.73;6.13;;;1.70;75.40;;;;;;10522486;28;20794;-76
2021/03/06 07:55:57;;;;;;;5.83;5.33;;;1.80;75.50;;;;;;10500296;28;20203;-77
2021/03/06 08:00:59;;;;;;;6.50;5.80;;;2.00;74.10;;;;;;10518022;28;20231;-77
2021/03/06 08:06:02;;;;;;;6.10;5.60;;;2.20;75.00;;;;;;10505185;28;20566;-77
2021/03/06 08:11:05;;;;;;;6.33;5.70;;;2.40;73.30;;;;;;10568271;22;20228;-81
2021/03/06 08:16:39;;;;;;;6.43;5.57;;;2.70;73.30;;;;;;10566469;28;20203;-79
2021/03/06 08:21:43;;;;;;;6.87;6.23;;;3.00;72.30;;;;;;10511108;28;20679;-81
2021/03/06 08:26:51;;;;;;;6.40;5.90;;;3.20;72.60;;;;;;10499056;28;20691;-81
2021/03/06 08:31:56;;;;;;;5.93;5.43;;;3.50;71.70;;;;;;10465019;28;20217;-80
2021/03/06 08:37:34;;;;;;;5.80;5.30;;;3.80;71.50;;;;;;10479112;28;20254;-79
2021/03/06 08:42:37;;;;;;;6.57;5.97;;;4.00;70.30;;;;;;10504182;28;20620;-79
2021/03/06 08:47:40;;;;;;;6.27;5.63;;;4.20;70.50;;;;;;10516156;28;20232;-78
2021/03/06 08:52:53;;;;;;;6.47;5.87;;;4.40;69.40;;;;;;10498678;28;20240;-81
2021/03/06 08:57:55;;;;;;;6.20;5.60;;;4.60;68.60;;;;;;10504684;28;20672;-81
2021/03/06 09:02:57;;;;;;;6.10;5.60;;;4.90;68.10;;;;;;10497686;28;20220;-81
2021/03/06 09:08:00;;;;;;;5.33;4.93;;;5.00;67.40;;;;;;10474472;28;20675;-81
2021/03/06 09:13:04;;;;;;;5.90;5.40;;;5.20;66.40;;;;;;10480182;28;20280;-81
2021/03/06 09:18:08;;;;;;;5.53;5.03;;;5.40;67.00;;;;;;10481789;28;20701;-80
2021/03/06 09:23:10;;;;;;;5.63;5.13;;;5.60;64.20;;;;;;10464771;28;20235;-81
2021/03/06 09:28:12;;;;;;;5.60;5.10;;;5.80;66.30;;;;;;10488045;28;20279;-81
2021/03/06 09:33:32;;;;;;;5.80;5.20;;;5.90;63.10;;;;;;10501056;28;20330;-81
2021/03/06 09:38:42;;;;;;;5.77;5.27;;;6.20;61.00;;;;;;10498771;28;20262;-80
2021/03/06 09:43:50;;;;;;;6.10;5.50;;;6.30;57.20;;;;;;10482438;28;20216;-81
2021/03/06 09:48:54;;;;;;;5.53;5.13;;;6.30;57.90;;;;;;10498600;28;20327;-81
2021/03/06 09:53:58;;;;;;;5.33;4.90;;;6.40;56.50;;;;;;10499925;28;20258;-81
2021/03/06 09:59:01;;;;;;;5.23;4.80;;;6.50;57.00;;;;;;10499137;28;20294;-81
2021/03/06 10:04:09;;;;;;;6.53;5.80;;;6.70;56.90;;;;;;10499353;28;20228;-79
2021/03/06 10:09:13;;;;;;;5.13;4.73;;;6.70;55.30;;;;;;10480565;28;20251;-81
2021/03/06 10:14:19;;;;;;;5.30;4.90;;;6.70;55.70;;;;;;10497499;28;20193;-82
2021/03/06 10:19:22;;;;;;;5.60;5.17;;;6.60;54.00;;;;;;10498913;28;20219;-82
2021/03/06 10:24:25;;;;;;;5.60;5.10;;;6.50;56.40;;;;;;10478951;28;20241;-80
2021/03/06 10:29:28;;;;;;;5.00;4.53;;;6.50;56.70;;;;;;10479607;28;20700;-82
2021/03/06 10:34:32;;;;;;;4.70;4.30;;;6.50;57.60;;;;;;10476724;28;20212;-80
2021/03/06 10:39:51;;;;;;;4.70;4.40;;;6.50;56.00;;;;;;10502749;28;20239;-82
2021/03/06 10:44:53;;;;;;;5.80;5.30;;;6.50;57.40;;;;;;10500589;28;20192;-80
2021/03/06 10:49:55;;;;;;;6.20;4.63;;;6.40;57.30;;;;;;10478091;28;20307;-81
2021/03/06 10:54:59;;;;;;;5.20;4.70;;;6.40;57.80;;;;;;10499817;28;21327;-79
2021/03/06 11:00:01;;;;;;;5.37;4.93;;;6.40;58.40;;;;;;10513777;28;20702;-79
2021/03/06 11:05:16;;;;;;;6.90;5.30;;;6.30;58.70;;;;;;10480675;28;20287;-81
2021/03/06 11:10:20;;;;;;;4.90;4.50;;;6.30;57.90;;;;;;10497148;28;20296;-81
2021/03/06 11:15:24;;;;;;;6.77;4.67;;;6.40;58.50;;;;;;10502132;28;20231;-82
2021/03/06 11:20:27;;;;;;;5.70;5.20;;;6.40;57.00;;;;;;10496634;28;20235;-80
2021/03/06 11:25:30;;;;;;;5.33;4.93;;;6.40;59.90;;;;;;10477412;28;20212;-81
2021/03/06 11:30:34;;;;;;;5.53;5.07;;;6.30;58.30;;;;;;10492123;28;20212;-79
2021/03/06 11:35:36;;;;;;;5.17;4.77;;;6.20;60.90;;;;;;10490257;28;20205;-82
2021/03/06 11:40:42;;;;;;;4.80;4.37;;;6.20;60.30;;;;;;10499033;28;20261;-81
2021/03/06 11:45:44;;;;;;;6.00;5.50;;;6.30;56.80;;;;;;10489840;28;20609;-81
2021/03/06 11:50:48;;;;;;;4.60;4.20;;;6.30;59.00;;;;;;10502761;28;20220;-80
2021/03/06 11:55:51;;;;;;;4.87;4.40;;;6.40;58.10;;;;;;10507611;28;20622;-82
2021/03/06 12:00:52;;;;;;;5.07;4.57;;;6.50;57.70;;;;;;10489683;28;20251;-79
2021/03/06 12:05:54;;;;;;;4.40;4.00;;;6.50;55.10;;;;;;10480762;28;20234;-79
2021/03/06 12:10:57;;;;;;;5.07;4.67;;;6.60;54.30;;;;;;10498683;28;20220;-82
2021/03/06 12:15:58;;;;;;;4.33;4.03;;;6.70;55.40;;;;;;10499463;28;20631;-80
2021/03/06 12:21:00;;;;;;;4.07;3.77;;;6.70;54.10;;;;;;10496773;28;20232;-82
2021/03/06 12:26:02;;;;;;;4.17;3.80;;;6.80;54.00;;;;;;10479475;28;20567;-80
2021/03/06 12:31:04;;;;;;;4.83;4.17;;;6.80;51.80;;;;;;10500506;28;20258;-80
2021/03/06 12:36:07;;;;;;;3.80;3.60;;;6.80;51.90;;;;;;10476383;28;20296;-79
2021/03/06 12:41:09;;;;;;;3.60;3.00;;;6.80;51.30;;;;;;10488051;28;21552;-83
2021/03/06 12:46:11;;;;;;;4.43;4.10;;;6.90;53.00;;;;;;10488442;28;20271;-82
2021/03/06 12:51:12;;;;;;;3.53;3.23;;;6.90;51.00;;;;;;10483522;28;20213;-80
2021/03/06 12:56:15;;;;;;;3.70;3.40;;;6.90;51.10;;;;;;10489390;28;20204;-80
2021/03/06 13:01:17;;;;;;;3.90;3.50;;;7.00;51.50;;;;;;10483510;28;20729;-82
2021/03/06 13:06:19;;;;;;;4.10;3.80;;;7.10;51.30;;;;;;10518876;28;20196;-81
2021/03/06 13:11:22;;;;;;;4.30;3.83;;;7.10;51.20;;;;;;10500186;28;20259;-79
2021/03/06 13:16:23;;;;;;;4.13;3.23;;;7.20;50.70;;;;;;10508006;28;20203;-82
2021/03/06 13:21:25;;;;;;;3.33;3.13;;;7.20;51.50;;;;;;10491749;28;20306;-82
2021/03/06 13:26:27;;;;;;;3.93;3.63;;;7.30;49.10;;;;;;10506409;28;20209;-79
2021/03/06 13:31:29;;;;;;;4.90;4.10;;;7.40;50.70;;;;;;10496797;28;20205;-79
2021/03/06 13:36:31;;;;;;;5.60;3.80;;;7.40;50.10;;;;;;10484512;28;20203;-81
2021/03/06 13:41:33;;;;;;;3.57;3.37;;;7.40;49.00;;;;;;10484734;28;20684;-81
2021/03/06 13:46:36;;;;;;;3.03;2.83;;;7.50;49.00;;;;;;10497463;28;20828;-82
2021/03/06 13:51:38;;;;;;;3.27;2.97;;;7.40;46.80;;;;;;10469042;28;20216;-79
2021/03/06 13:56:40;;;;;;;3.93;3.57;;;7.50;46.90;;;;;;10481139;28;20218;-81
2021/03/06 14:01:43;;;;;;;3.20;3.00;;;7.50;47.50;;;;;;10479461;28;20224;-81
2021/03/06 14:06:46;;;;;;;3.33;2.40;;;7.50;47.00;;;;;;10481733;28;20208;-80
2021/03/06 14:11:48;;;;;;;2.90;2.70;;;7.50;49.30;;;;;;10482733;28;20697;-78
2021/03/06 14:16:50;;;;;;;3.50;3.20;;;7.50;47.10;;;;;;10481717;28;20200;-78
2021/03/06 14:21:51;;;;;;;4.50;3.57;;;7.60;47.00;;;;;;10480809;28;20740;-79
2021/03/06 14:26:54;;;;;;;4.77;3.43;;;7.70;46.90;;;;;;10482704;28;20536;-80
2021/03/06 14:31:56;;;;;;;3.40;3.20;;;7.80;48.30;;;;;;10494236;28;20258;-80
2021/03/06 14:36:57;;;;;;;3.90;3.50;;;7.80;47.40;;;;;;10488194;28;20207;-79
2021/03/06 14:42:01;;;;;;;2.93;2.80;;;7.80;46.00;;;;;;10486681;28;20225;-81
2021/03/06 14:47:03;;;;;;;2.97;2.77;;;7.90;46.60;;;;;;10489427;28;20192;-79
2021/03/06 14:52:06;;;;;;;3.17;2.97;;;7.90;45.90;;;;;;10489672;28;20598;-78
2021/03/06 14:57:09;;;;;;;3.33;3.03;;;8.00;48.90;;;;;;10507503;28;20232;-80
2021/03/06 15:02:10;;;;;;;3.67;3.20;;;8.00;49.20;;;;;;10486775;28;20220;-80
2021/03/06 15:07:12;;;;;;;3.30;3.10;;;8.00;50.40;;;;;;10517500;28;20223;-79
2021/03/06 15:12:15;;;;;;;3.20;3.00;;;8.00;48.80;;;;;;10486775;28;20224;-81
2021/03/06 15:17:16;;;;;;;3.43;3.13;;;8.00;48.30;;;;;;10500296;28;20203;-80
2021/03/06 15:22:18;;;;;;;3.57;3.20;;;8.00;49.60;;;;;;10499037;28;20240;-78
2021/03/06 15:27:20;;;;;;;3.80;3.50;;;8.00;47.50;;;;;;10497134;28;20417;-78
2021/03/06 15:32:22;;;;;;;3.87;3.53;;;8.00;47.60;;;;;;10490323;28;20223;-78
2021/03/06 15:37:24;;;;;;;4.87;3.83;;;8.00;45.30;;;;;;10480415;28;20203;-82
2021/03/06 15:42:26;;;;;;;4.70;4.20;;;8.00;50.00;;;;;;10481401;28;20224;-81
2021/03/06 15:47:28;;;;;;;3.37;3.07;;;8.10;48.90;;;;;;10495877;28;20208;-82
2021/03/06 15:52:29;;;;;;;4.10;3.77;;;8.10;48.80;;;;;;10495499;28;20307;-82
2021/03/06 15:57:32;;;;;;;4.40;4.00;;;8.10;49.90;;;;;;10494017;28;20620;-80
2021/03/06 16:02:34;;;;;;;3.60;3.30;;;8.10;49.30;;;;;;10496329;28;20228;-82
2021/03/06 16:07:35;;;;;;;3.70;3.47;;;8.00;48.30;;;;;;10494335;28;20661;-80
2021/03/06 16:12:38;;;;;;;3.40;3.20;;;8.00;48.30;;;;;;10497078;28;20250;-82
2021/03/06 16:17:40;;;;;;;3.37;3.17;;;8.00;48.30;;;;;;10502366;28;20230;-82
2021/03/06 16:22:41;;;;;;;4.43;4.03;;;8.00;48.50;;;;;;10502223;28;20278;-83
2021/03/06 16:27:44;;;;;;;3.93;3.63;;;8.00;50.20;;;;;;10503393;28;20714;-82
2021/03/06 16:32:46;;;;;;;4.23;3.93;;;8.00;50.20;;;;;;10484368;28;20215;-82
2021/03/06 16:37:47;;;;;;;4.40;4.10;;;8.00;49.90;;;;;;10504170;28;20768;-83
2021/03/06 16:42:52;;;;;;;3.80;3.60;;;8.00;51.60;;;;;;10503502;28;20224;-82
2021/03/06 16:47:53;;;;;;;3.37;3.13;;;7.90;51.10;;;;;;10498145;28;20657;-82
2021/03/06 16:52:55;;;;;;;3.70;3.40;;;7.80;50.80;;;;;;10482128;28;20240;-79
2021/03/06 16:57:57;;;;;;;5.73;3.93;;;7.80;49.80;;;;;;10488002;28;20283;-81
2021/03/06 17:02:59;;;;;;;4.57;4.17;;;7.70;50.00;;;;;;10485830;28;20574;-80
2021/03/06 17:08:01;;;;;;;5.30;4.40;;;7.70;50.80;;;;;;10508693;28;20234;-79
2021/03/06 17:13:05;;;;;;;6.03;4.43;;;7.60;49.30;;;;;;10491443;28;20704;-80
2021/03/06 17:18:07;;;;;;;5.23;4.30;;;7.50;49.20;;;;;;10495482;28;20568;-82
2021/03/06 17:23:09;;;;;;;5.10;4.60;;;7.40;49.90;;;;;;10474369;28;20224;-82
2021/03/06 17:28:11;;;;;;;4.73;4.33;;;7.30;50.70;;;;;;10472032;28;20227;-81
2021/03/06 17:33:16;;;;;;;5.80;5.23;;;7.10;51.30;;;;;;10472158;28;20235;-81
2021/03/06 17:38:17;;;;;;;6.80;6.20;;;7.00;51.40;;;;;;10473050;28;20217;-81
2021/03/06 17:43:20;;;;;;;5.77;5.37;;;6.80;51.90;;;;;;10482295;28;20268;-81
2021/03/06 17:48:21;;;;;;;6.00;5.50;;;6.70;52.10;;;;;;10475209;28;20692;-80
2021/03/06 17:53:24;;;;;;;5.83;5.30;;;6.50;52.60;;;;;;10465854;28;20653;-80
2021/03/06 17:58:26;;;;;;;8.40;7.33;;;6.30;52.30;;;;;;10475525;28;20263;-79
2021/03/06 18:03:28;;;;;;;8.40;7.60;;;6.20;52.90;;;;;;10483657;28;20506;-81
2021/03/06 18:08:30;;;;;;;7.70;6.93;;;6.00;53.00;;;;;;10486239;28;20247;-80
2021/03/06 18:13:33;;;;;;;7.13;6.53;;;5.90;52.90;;;;;;10484147;28;20196;-79
2021/03/06 18:18:34;;;;;;;9.80;7.30;;;5.80;53.60;;;;;;10480221;28;20225;-80
2021/03/06 18:23:36;;;;;;;9.00;8.10;;;5.70;53.70;;;;;;10496749;28;20217;-80
2021/03/06 18:28:39;;;;;;;9.30;8.40;;;5.50;53.80;;;;;;10476028;28;20307;-79
2021/03/06 18:33:42;;;;;;;11.10;10.00;;;5.40;54.30;;;;;;10479229;28;20204;-78
2021/03/06 18:38:44;;;;;;;10.03;8.60;;;5.40;54.60;;;;;;10472300;28;20217;-80
2021/03/06 18:43:47;;;;;;;9.93;7.93;;;5.30;54.50;;;;;;10489996;28;20225;-80
2021/03/06 18:48:48;;;;;;;9.17;8.27;;;5.20;54.90;;;;;;10474574;28;20221;-79
2021/03/06 18:53:50;;;;;;;7.30;6.70;;;5.10;54.60;;;;;;10473906;28;20201;-80
2021/03/06 18:58:52;;;;;;;7.00;6.30;;;5.00;54.80;;;;;;10474507;28;20228;-80
2021/03/06 19:03:54;;;;;;;9.50;6.23;;;4.90;54.90;;;;;;10469193;28;20221;-79
2021/03/06 19:08:56;;;;;;;8.07;7.37;;;4.80;55.50;;;;;;10492901;28;20235;-79
2021/03/06 19:13:58;;;;;;;22.67;15.80;;;4.70;55.70;;;;;;10472063;28;20224;-79
2021/03/06 19:19:03;;;;;;;14.27;10.47;;;4.60;55.90;;;;;;10472729;28;20641;-80
2021/03/06 19:24:05;;;;;;;9.33;8.43;;;4.50;55.70;;;;;;10469619;28;20337;-80
2021/03/06 19:29:08;;;;;;;11.53;10.33;;;4.40;55.60;;;;;;10479574;28;20228;-80
2021/03/06 19:34:10;;;;;;;9.20;8.40;;;4.30;56.30;;;;;;10475991;28;20299;-80
2021/03/06 19:39:13;;;;;;;7.67;6.97;;;4.20;56.60;;;;;;10470754;28;20719;-81
2021/03/06 19:44:16;;;;;;;10.20;7.50;;;4.10;56.60;;;;;;10471795;28;20220;-78
2021/03/06 19:49:17;;;;;;;8.13;7.33;;;4.00;56.70;;;;;;10475258;28;20228;-79
2021/03/06 19:54:19;;;;;;;7.33;6.63;;;3.90;57.10;;;;;;10478891;28;20221;-77
2021/03/06 19:59:24;;;;;;;8.80;7.70;;;3.80;56.60;;;;;;10477970;28;20700;-79
2021/03/06 20:04:26;;;;;;;8.33;7.53;;;3.80;57.50;;;;;;10474846;28;20236;-79
2021/03/06 20:09:28;;;;;;;9.13;7.63;;;3.70;57.30;;;;;;10495338;22;20247;-79
2021/03/06 20:14:37;;;;;;;15.20;12.43;;;3.60;56.90;;;;;;10452709;28;20201;-79
2021/03/06 20:19:40;;;;;;;9.90;8.90;;;3.60;57.60;;;;;;10450398;28;20726;-79
2021/03/06 20:24:42;;;;;;;8.90;8.07;;;3.50;58.00;;;;;;10452786;28;20261;-79
2021/03/06 20:29:44;;;;;;;13.47;12.07;;;3.50;57.60;;;;;;10452762;28;20311;-79
2021/03/06 20:34:46;;;;;;;15.97;14.27;;;3.40;57.70;;;;;;10451605;28;20198;-78
2021/03/06 20:39:48;;;;;;;9.13;8.23;;;3.40;57.70;;;;;;10430609;28;20685;-77
2021/03/06 20:44:50;;;;;;;16.20;13.90;;;3.40;58.00;;;;;;10446768;28;20270;-78
2021/03/06 20:49:52;;;;;;;9.27;8.27;;;3.40;58.40;;;;;;10446117;28;20675;-78
2021/03/06 20:54:54;;;;;;;9.80;8.90;;;3.30;57.40;;;;;;10446808;28;20236;-77
2021/03/06 20:59:56;;;;;;;9.43;8.23;;;3.30;58.00;;;;;;10444780;28;20252;-78
2021/03/06 21:04:58;;;;;;;10.60;9.50;;;3.30;58.50;;;;;;10450530;28;20221;-79
2021/03/06 21:10:00;;;;;;;10.20;9.10;;;3.30;58.90;;;;;;10452381;28;20327;-79
2021/03/06 21:15:03;;;;;;;13.30;11.30;;;3.30;59.60;;;;;;10451130;28;20193;-78
2021/03/06 21:20:07;;;;;;;12.47;11.17;;;3.30;59.50;;;;;;10449764;28;20213;-78
2021/03/06 21:25:10;;;;;;;12.83;11.40;;;3.30;59.60;;;;;;10450778;28;20227;-78
2021/03/06 21:30:15;;;;;;;11.70;10.50;;;3.30;59.40;;;;;;10449051;28;20217;-78
2021/03/06 21:35:16;;;;;;;12.43;10.33;;;3.20;59.60;;;;;;10445721;28;20197;-79
2021/03/06 21:40:19;;;;;;;9.60;8.63;;;3.20;59.90;;;;;;10446382;28;20304;-78
2021/03/06 21:45:21;;;;;;;8.80;7.90;;;3.10;59.80;;;;;;10446891;28;20287;-78
2021/03/06 21:50:23;;;;;;;8.10;7.30;;;3.00;59.70;;;;;;10448476;28;20213;-78
2021/03/06 21:55:26;;;;;;;7.93;7.20;;;2.90;60.30;;;;;;10447288;28;20259;-78
2021/03/06 22:00:28;;;;;;;8.00;6.67;;;2.90;59.50;;;;;;10445383;28;20304;-78
2021/03/06 22:05:30;;;;;;;7.20;6.50;;;2.80;60.00;;;;;;10446658;28;20228;-78
2021/03/06 22:10:32;;;;;;;5.93;5.43;;;2.80;60.30;;;;;;10447238;28;20236;-78
2021/03/06 22:15:35;;;;;;;7.00;5.83;;;2.70;60.30;;;;;;10446954;28;20276;-78
2021/03/06 22:20:36;;;;;;;6.67;5.97;;;2.70;60.10;;;;;;10446645;28;20217;-78
2021/03/06 22:25:39;;;;;;;6.50;5.53;;;2.60;60.50;;;;;;10447829;28;20221;-78
2021/03/06 22:30:41;;;;;;;7.80;7.00;;;2.60;60.60;;;;;;10444484;28;20225;-78
2021/03/06 22:35:43;;;;;;;7.13;6.43;;;2.50;60.10;;;;;;10446470;28;20201;-78
2021/03/06 22:40:44;;;;;;;6.70;6.10;;;2.50;60.00;;;;;;10448933;28;20290;-78
2021/03/06 22:45:47;;;;;;;7.60;6.77;;;2.60;59.60;;;;;;10451093;28;20201;-78
2021/03/06 22:50:49;;;;;;;7.27;6.60;;;2.60;60.70;;;;;;10450973;28;20385;-79
2021/03/06 22:55:50;;;;;;;9.23;8.27;;;2.60;60.80;;;;;;10443360;28;20562;-78
2021/03/06 23:00:57;;;;;;;8.10;7.30;;;2.60;61.00;;;;;;10444393;28;20773;-78
2021/03/06 23:06:02;;;;;;;7.50;6.80;;;2.60;61.10;;;;;;10443256;28;20735;-78
2021/03/06 23:11:06;;;;;;;7.73;6.97;;;2.50;61.90;;;;;;10443837;28;20319;-78
2021/03/06 23:16:10;;;;;;;7.53;6.70;;;2.50;61.40;;;;;;10441600;28;20204;-78
2021/03/06 23:21:12;;;;;;;6.40;5.87;;;2.50;61.40;;;;;;10442314;28;20590;-78
2021/03/06 23:26:14;;;;;;;7.30;6.53;;;2.40;61.70;;;;;;10453215;28;20633;-78
2021/03/06 23:31:17;;;;;;;6.63;6.03;;;2.40;61.80;;;;;;10455077;28;20238;-78
2021/03/06 23:36:18;;;;;;;7.37;6.67;;;2.30;62.00;;;;;;10453928;28;20193;-78
2021/03/06 23:41:20;;;;;;;7.97;7.17;;;2.30;62.40;;;;;;10454250;28;20324;-78
2021/03/06 23:46:23;;;;;;;7.00;6.30;;;2.30;61.70;;;;;;10449692;28;20625;-78
2021/03/06 23:51:24;;;;;;;6.93;6.33;;;2.30;61.70;;;;;;10446601;28;20257;-78
2021/03/06 23:56:26;;;;;;;6.70;6.07;;;2.20;61.90;;;;;;10462626;28;20288;-79
